sensor_id;sensor_type;location;lat;lon;timestamp;pressure;altitude;pressure_sealevel;temperature;humidity
75640;BME280;64233;51.486;6.332;2024-03-29T00:00:24;156265.28;;;7.13;100.00
75640;BME280;64233;51.486;6.332;2024-03-29T00:02:50;156239.63;;;7.03;100.00
75640;BME280;64233;51.486;6.332;2024-03-29T00:05:15;156247.34;;;7.06;100.00
75640;BME280;64233;51.486;6.332;2024-03-29T00:07:40;156263.97;;;7.13;100.00
75640;BME280;64233;51.486;6.332;2024-03-29T00:10:06;156283.25;;;7.20;100.00
75640;BME280;64233;51.486;6.332;2024-03-29T00:12:31;156263.97;;;7.13;100.00
75640;BME280;64233;51.486;6.332;2024-03-29T00:14:57;156260.16;;;7.11;100.00
75640;BME280;64233;51.486;6.332;2024-03-29T00:17:22;156248.63;;;7.06;100.00
75640;BME280;64233;51.486;6.332;2024-03-29T00:19:48;156283.25;;;7.20;100.00
75640;BME280;64233;51.486;6.332;2024-03-29T00:22:13;156243.47;;;7.04;100.00
75640;BME280;64233;51.486;6.332;2024-03-29T00:24:38;156224.25;;;6.97;100.00
75640;BME280;64233;51.486;6.332;2024-03-29T00:27:04;156235.78;;;7.01;100.00
75640;BME280;64233;51.486;6.332;2024-03-29T00:29:29;156239.63;;;7.03;100.00
75640;BME280;64233;51.486;6.332;2024-03-29T00:31:55;156237.09;;;7.02;100.00
75640;BME280;64233;51.486;6.332;2024-03-29T00:34:20;156206.31;;;6.89;100.00
75640;BME280;64233;51.486;6.332;2024-03-29T00:36:46;156201.16;;;6.87;100.00
75640;BME280;64233;51.486;6.332;2024-03-29T00:39:12;156185.78;;;6.81;100.00
75640;BME280;64233;51.486;6.332;2024-03-29T00:41:37;156166.56;;;6.74;100.00
75640;BME280;64233;51.486;6.332;2024-03-29T00:44:03;156183.22;;;6.80;100.00
75640;BME280;64233;51.486;6.332;2024-03-29T00:46:28;156151.16;;;6.67;100.00
75640;BME280;64233;51.486;6.332;2024-03-29T00:48:54;156121.69;;;6.55;100.00
75640;BME280;64233;51.486;6.332;2024-03-29T00:51:19;156117.88;;;6.54;100.00
75640;BME280;64233;51.486;6.332;2024-03-29T00:53:45;156130.69;;;6.59;100.00
75640;BME280;64233;51.486;6.332;2024-03-29T00:56:10;156119.13;;;6.54;100.00
75640;BME280;64233;51.486;6.332;2024-03-29T00:58:36;156097.34;;;6.46;100.00
75640;BME280;64233;51.486;6.332;2024-03-29T01:01:01;156090.94;;;6.43;100.00
75640;BME280;64233;51.486;6.332;2024-03-29T01:03:26;156076.84;;;6.37;100.00
75640;BME280;64233;51.486;6.332;2024-03-29T01:05:54;156055.06;;;6.29;100.00
75640;BME280;64233;51.486;6.332;2024-03-29T01:08:23;156035.84;;;6.21;100.00
75640;BME280;64233;51.486;6.332;2024-03-29T01:10:49;156017.91;;;6.14;100.00
75640;BME280;64233;51.486;6.332;2024-03-29T01:13:14;155999.94;;;6.07;100.00
75640;BME280;64233;51.486;6.332;2024-03-29T01:15:40;156033.28;;;6.20;100.00
75640;BME280;64233;51.486;6.332;2024-03-29T01:18:05;156052.47;;;6.28;100.00
75640;BME280;64233;51.486;6.332;2024-03-29T01:20:30;156116.59;;;6.53;100.00
75640;BME280;64233;51.486;6.332;2024-03-29T01:22:56;156094.78;;;6.45;100.00
75640;BME280;64233;51.486;6.332;2024-03-29T01:25:21;156055.06;;;6.29;100.00
75640;BME280;64233;51.486;6.332;2024-03-29T01:27:47;156044.78;;;6.25;100.00
75640;BME280;64233;51.486;6.332;2024-03-29T01:30:12;156039.69;;;6.23;100.00
75640;BME280;64233;51.486;6.332;2024-03-29T01:32:40;156048.63;;;6.26;100.00
75640;BME280;64233;51.486;6.332;2024-03-29T01:35:06;156046.09;;;6.25;100.00
75640;BME280;64233;51.486;6.332;2024-03-29T01:37:31;156048.63;;;6.26;100.00
75640;BME280;64233;51.486;6.332;2024-03-29T01:39:57;156039.69;;;6.23;100.00
75640;BME280;64233;51.486;6.332;2024-03-29T01:42:22;156033.28;;;6.20;100.00
75640;BME280;64233;51.486;6.332;2024-03-29T01:44:48;156020.44;;;6.15;100.00
75640;BME280;64233;51.486;6.332;2024-03-29T01:47:13;156028.13;;;6.18;100.00
75640;BME280;64233;51.486;6.332;2024-03-29T01:49:39;156030.69;;;6.19;100.00
75640;BME280;64233;51.486;6.332;2024-03-29T01:52:05;156038.38;;;6.22;100.00
75640;BME280;64233;51.486;6.332;2024-03-29T01:54:31;156044.78;;;6.25;100.00
75640;BME280;64233;51.486;6.332;2024-03-29T01:56:57;156043.53;;;6.24;100.00
75640;BME280;64233;51.486;6.332;2024-03-29T01:59:23;156047.38;;;6.26;100.00
75640;BME280;64233;51.486;6.332;2024-03-29T02:01:50;156083.25;;;6.40;100.00
75640;BME280;64233;51.486;6.332;2024-03-29T02:04:15;156093.50;;;6.44;100.00
75640;BME280;64233;51.486;6.332;2024-03-29T02:06:40;156101.19;;;6.47;100.00
75640;BME280;64233;51.486;6.332;2024-03-29T02:09:06;156122.97;;;6.56;100.00
75640;BME280;64233;51.486;6.332;2024-03-29T02:11:32;156130.69;;;6.59;100.00
75640;BME280;64233;51.486;6.332;2024-03-29T02:13:57;156122.97;;;6.56;100.00
75640;BME280;64233;51.486;6.332;2024-03-29T02:16:23;156155.00;;;6.69;100.00
75640;BME280;64233;51.486;6.332;2024-03-29T02:18:48;156146.06;;;6.65;100.00
75640;BME280;64233;51.486;6.332;2024-03-29T02:21:13;156144.75;;;6.65;100.00
75640;BME280;64233;51.486;6.332;2024-03-29T02:23:43;156151.16;;;6.67;100.00
75640;BME280;64233;51.486;6.332;2024-03-29T02:26:09;156157.59;;;6.70;100.00
75640;BME280;64233;51.486;6.332;2024-03-29T02:28:34;156172.94;;;6.76;100.00
75640;BME280;64233;51.486;6.332;2024-03-29T02:31:00;156179.38;;;6.79;100.00
75640;BME280;64233;51.486;6.332;2024-03-29T02:33:25;156176.84;;;6.78;100.00
75640;BME280;64233;51.486;6.332;2024-03-29T02:35:50;156176.84;;;6.78;100.00
75640;BME280;64233;51.486;6.332;2024-03-29T02:38:16;156169.09;;;6.75;100.00
75640;BME280;64233;51.486;6.332;2024-03-29T02:40:41;156179.38;;;6.79;100.00
75640;BME280;64233;51.486;6.332;2024-03-29T02:43:06;156179.38;;;6.79;100.00
75640;BME280;64233;51.486;6.332;2024-03-29T02:45:32;156183.22;;;6.80;100.00
75640;BME280;64233;51.486;6.332;2024-03-29T02:47:58;156192.19;;;6.84;100.00
75640;BME280;64233;51.486;6.332;2024-03-29T02:50:23;156225.50;;;6.97;100.00
75640;BME280;64233;51.486;6.332;2024-03-29T02:52:48;156215.25;;;6.93;100.00
75640;BME280;64233;51.486;6.332;2024-03-29T02:55:14;156239.63;;;7.03;100.00
75640;BME280;64233;51.486;6.332;2024-03-29T02:57:39;156217.81;;;6.94;100.00
75640;BME280;64233;51.486;6.332;2024-03-29T03:00:06;156210.16;;;6.91;100.00
75640;BME280;64233;51.486;6.332;2024-03-29T03:02:32;156197.31;;;6.86;100.00
75640;BME280;64233;51.486;6.332;2024-03-29T03:04:57;156175.53;;;6.77;100.00
75640;BME280;64233;51.486;6.332;2024-03-29T03:07:24;156193.47;;;6.84;100.00
75640;BME280;64233;51.486;6.332;2024-03-29T03:10:08;156157.59;;;6.70;100.00
75640;BME280;64233;51.486;6.332;2024-03-29T03:12:52;156137.06;;;6.62;100.00
75640;BME280;64233;51.486;6.332;2024-03-29T03:15:18;156131.97;;;6.60;100.00
75640;BME280;64233;51.486;6.332;2024-03-29T03:17:43;156119.13;;;6.54;100.00
75640;BME280;64233;51.486;6.332;2024-03-29T03:20:08;156125.53;;;6.57;100.00
75640;BME280;64233;51.486;6.332;2024-03-29T03:22:37;156126.81;;;6.58;100.00
75640;BME280;64233;51.486;6.332;2024-03-29T03:25:03;156115.28;;;6.53;100.00
75640;BME280;64233;51.486;6.332;2024-03-29T03:27:28;156117.88;;;6.54;100.00
75640;BME280;64233;51.486;6.332;2024-03-29T03:29:54;156129.38;;;6.59;100.00
75640;BME280;64233;51.486;6.332;2024-03-29T03:32:19;156125.53;;;6.57;100.00
75640;BME280;64233;51.486;6.332;2024-03-29T03:34:44;156131.97;;;6.60;100.00
75640;BME280;64233;51.486;6.332;2024-03-29T03:37:10;156134.53;;;6.61;100.00
75640;BME280;64233;51.486;6.332;2024-03-29T03:39:36;156115.28;;;6.53;100.00
75640;BME280;64233;51.486;6.332;2024-03-29T03:42:01;156121.69;;;6.55;100.00
75640;BME280;64233;51.486;6.332;2024-03-29T03:44:26;156125.53;;;6.57;100.00
75640;BME280;64233;51.486;6.332;2024-03-29T03:46:53;156112.72;;;6.52;100.00
75640;BME280;64233;51.486;6.332;2024-03-29T03:49:19;156097.34;;;6.46;100.00
75640;BME280;64233;51.486;6.332;2024-03-29T03:51:44;156092.25;;;6.44;100.00
75640;BME280;64233;51.486;6.332;2024-03-29T03:54:09;156094.78;;;6.45;100.00
75640;BME280;64233;51.486;6.332;2024-03-29T03:56:35;156096.09;;;6.45;100.00
75640;BME280;64233;51.486;6.332;2024-03-29T03:59:01;156087.09;;;6.42;100.00
75640;BME280;64233;51.486;6.332;2024-03-29T04:01:26;156097.34;;;6.46;100.00
75640;BME280;64233;51.486;6.332;2024-03-29T04:03:51;156126.81;;;6.58;100.00
75640;BME280;64233;51.486;6.332;2024-03-29T04:06:17;156114.03;;;6.52;100.00
75640;BME280;64233;51.486;6.332;2024-03-29T04:08:45;156087.09;;;6.42;100.00
75640;BME280;64233;51.486;6.332;2024-03-29T04:11:11;156073.00;;;6.36;100.00
75640;BME280;64233;51.486;6.332;2024-03-29T04:13:36;156064.03;;;6.32;100.00
75640;BME280;64233;51.486;6.332;2024-03-29T04:16:07;156058.88;;;6.30;100.00
75640;BME280;64233;51.486;6.332;2024-03-29T04:18:33;156055.06;;;6.29;100.00
75640;BME280;64233;51.486;6.332;2024-03-29T04:21:02;156047.38;;;6.26;100.00
75640;BME280;64233;51.486;6.332;2024-03-29T04:23:28;156052.47;;;6.28;100.00
75640;BME280;64233;51.486;6.332;2024-03-29T04:25:55;156043.53;;;6.24;100.00
75640;BME280;64233;51.486;6.332;2024-03-29T04:28:21;156035.84;;;6.21;100.00
75640;BME280;64233;51.486;6.332;2024-03-29T04:30:51;156006.34;;;6.09;100.00
75640;BME280;64233;51.486;6.332;2024-03-29T04:33:17;155994.81;;;6.05;100.00
75640;BME280;64233;51.486;6.332;2024-03-29T04:35:58;155975.59;;;5.97;100.00
75640;BME280;64233;51.486;6.332;2024-03-29T04:38:25;155965.34;;;5.93;100.00
75640;BME280;64233;51.486;6.332;2024-03-29T04:40:53;155964.00;;;5.92;100.00
75640;BME280;64233;51.486;6.332;2024-03-29T04:43:20;155967.84;;;5.94;100.00
75640;BME280;64233;51.486;6.332;2024-03-29T04:45:46;155967.84;;;5.94;100.00
75640;BME280;64233;51.486;6.332;2024-03-29T04:48:12;155967.84;;;5.94;100.00
75640;BME280;64233;51.486;6.332;2024-03-29T04:50:38;155961.50;;;5.91;100.00
75640;BME280;64233;51.486;6.332;2024-03-29T04:53:04;155951.22;;;5.87;100.00
75640;BME280;64233;51.486;6.332;2024-03-29T04:55:30;155938.41;;;5.82;100.00
75640;BME280;64233;51.486;6.332;2024-03-29T04:57:55;155928.16;;;5.78;100.00
75640;BME280;64233;51.486;6.332;2024-03-29T05:00:21;155921.75;;;5.75;100.00
75640;BME280;64233;51.486;6.332;2024-03-29T05:02:46;155906.38;;;5.69;100.00
75640;BME280;64233;51.486;6.332;2024-03-29T05:05:11;155906.38;;;5.69;100.00
75640;BME280;64233;51.486;6.332;2024-03-29T05:07:37;155905.13;;;5.68;100.00
75640;BME280;64233;51.486;6.332;2024-03-29T05:10:02;155903.81;;;5.68;100.00
75640;BME280;64233;51.486;6.332;2024-03-29T05:12:35;155910.22;;;5.71;100.00
75640;BME280;64233;51.486;6.332;2024-03-29T05:15:01;155908.97;;;5.70;100.00
75640;BME280;64233;51.486;6.332;2024-03-29T05:17:26;155906.38;;;5.69;100.00
75640;BME280;64233;51.486;6.332;2024-03-29T05:19:56;155894.88;;;5.64;100.00
75640;BME280;64233;51.486;6.332;2024-03-29T05:22:22;155888.44;;;5.62;100.00
75640;BME280;64233;51.486;6.332;2024-03-29T05:24:47;155888.44;;;5.62;100.00
75640;BME280;64233;51.486;6.332;2024-03-29T05:27:13;155878.19;;;5.58;100.00
75640;BME280;64233;51.486;6.332;2024-03-29T05:29:38;155876.94;;;5.57;100.00
75640;BME280;64233;51.486;6.332;2024-03-29T05:32:05;155875.63;;;5.57;100.00
75640;BME280;64233;51.486;6.332;2024-03-29T05:34:30;155878.19;;;5.58;100.00
75640;BME280;64233;51.486;6.332;2024-03-29T05:36:56;155871.78;;;5.55;100.00
75640;BME280;64233;51.486;6.332;2024-03-29T05:39:21;155876.94;;;5.57;100.00
75640;BME280;64233;51.486;6.332;2024-03-29T05:41:47;155874.38;;;5.56;100.00
75640;BME280;64233;51.486;6.332;2024-03-29T05:44:13;155876.94;;;5.57;100.00
75640;BME280;64233;51.486;6.332;2024-03-29T05:46:38;155875.63;;;5.57;100.00
75640;BME280;64233;51.486;6.332;2024-03-29T05:49:05;155878.19;;;5.58;100.00
75640;BME280;64233;51.486;6.332;2024-03-29T05:51:30;155876.94;;;5.57;100.00
75640;BME280;64233;51.486;6.332;2024-03-29T05:53:56;155882.03;;;5.59;100.00
75640;BME280;64233;51.486;6.332;2024-03-29T05:56:21;155876.94;;;5.57;100.00
75640;BME280;64233;51.486;6.332;2024-03-29T05:58:47;155874.38;;;5.56;100.00
75640;BME280;64233;51.486;6.332;2024-03-29T06:01:13;155880.78;;;5.59;100.00
75640;BME280;64233;51.486;6.332;2024-03-29T06:03:38;155879.47;;;5.58;100.00
75640;BME280;64233;51.486;6.332;2024-03-29T06:06:04;155882.03;;;5.59;100.00
75640;BME280;64233;51.486;6.332;2024-03-29T06:08:32;155879.47;;;5.58;100.00
75640;BME280;64233;51.486;6.332;2024-03-29T06:10:57;155880.78;;;5.59;100.00
75640;BME280;64233;51.486;6.332;2024-03-29T06:13:24;155882.03;;;5.59;100.00
75640;BME280;64233;51.486;6.332;2024-03-29T06:16:15;155882.03;;;5.59;100.00
75640;BME280;64233;51.486;6.332;2024-03-29T06:18:59;155878.19;;;5.58;100.00
75640;BME280;64233;51.486;6.332;2024-03-29T06:21:24;155883.31;;;5.60;100.00
75640;BME280;64233;51.486;6.332;2024-03-29T06:23:50;155882.03;;;5.59;100.00
75640;BME280;64233;51.486;6.332;2024-03-29T06:26:15;155882.03;;;5.59;100.00
75640;BME280;64233;51.486;6.332;2024-03-29T06:28:40;155887.16;;;5.61;100.00
75640;BME280;64233;51.486;6.332;2024-03-29T06:31:06;155885.88;;;5.61;100.00
75640;BME280;64233;51.486;6.332;2024-03-29T06:33:31;155887.16;;;5.61;100.00
75640;BME280;64233;51.486;6.332;2024-03-29T06:35:56;155892.28;;;5.63;100.00
75640;BME280;64233;51.486;6.332;2024-03-29T06:38:22;155896.13;;;5.65;100.00
75640;BME280;64233;51.486;6.332;2024-03-29T06:40:48;155896.13;;;5.65;100.00
75640;BME280;64233;51.486;6.332;2024-03-29T06:43:13;155896.13;;;5.65;100.00
75640;BME280;64233;51.486;6.332;2024-03-29T06:45:42;155906.38;;;5.69;100.00
75640;BME280;64233;51.486;6.332;2024-03-29T06:48:10;155911.47;;;5.71;100.00
75640;BME280;64233;51.486;6.332;2024-03-29T06:50:37;155920.47;;;5.75;100.00
75640;BME280;64233;51.486;6.332;2024-03-29T06:53:03;155925.56;;;5.77;100.00
75640;BME280;64233;51.486;6.332;2024-03-29T06:55:29;155939.66;;;5.82;100.00
75640;BME280;64233;51.486;6.332;2024-03-29T06:57:54;155939.66;;;5.82;100.00
75640;BME280;64233;51.486;6.332;2024-03-29T07:00:20;155953.75;;;5.88;100.00
75640;BME280;64233;51.486;6.332;2024-03-29T07:02:46;155957.59;;;5.90;100.00
75640;BME280;64233;51.486;6.332;2024-03-29T07:05:12;155988.41;;;6.02;100.00
75640;BME280;64233;51.486;6.332;2024-03-29T07:07:37;156014.03;;;6.12;100.00
75640;BME280;64233;51.486;6.332;2024-03-29T07:10:04;156021.75;;;6.15;100.00
75640;BME280;64233;51.486;6.332;2024-03-29T07:12:30;156029.44;;;6.18;100.00
75640;BME280;64233;51.486;6.332;2024-03-29T07:14:56;156052.47;;;6.28;100.00
75640;BME280;64233;51.486;6.332;2024-03-29T07:17:21;156073.00;;;6.36;100.00
75640;BME280;64233;51.486;6.332;2024-03-29T07:19:46;156090.94;;;6.43;100.00
75640;BME280;64233;51.486;6.332;2024-03-29T07:22:12;156103.75;;;6.48;100.00
75640;BME280;64233;51.486;6.332;2024-03-29T07:24:37;156119.13;;;6.54;100.00
75640;BME280;64233;51.486;6.332;2024-03-29T07:27:09;156134.53;;;6.61;100.00
75640;BME280;64233;51.486;6.332;2024-03-29T07:29:34;156157.59;;;6.70;100.00
75640;BME280;64233;51.486;6.332;2024-03-29T07:32:00;156179.38;;;6.79;100.00
75640;BME280;64233;51.486;6.332;2024-03-29T07:34:26;156201.16;;;6.87;100.00
75640;BME280;64233;51.486;6.332;2024-03-29T07:36:51;156205.03;;;6.89;100.00
75640;BME280;64233;51.486;6.332;2024-03-29T07:39:16;156217.81;;;6.94;100.00
75640;BME280;64233;51.486;6.332;2024-03-29T07:41:42;156246.03;;;7.05;100.00
75640;BME280;64233;51.486;6.332;2024-03-29T07:44:08;156274.25;;;7.17;100.00
75640;BME280;64233;51.486;6.332;2024-03-29T07:46:35;156289.66;;;7.23;100.00
75640;BME280;64233;51.486;6.332;2024-03-29T07:49:01;156293.50;;;7.24;100.00
75640;BME280;64233;51.486;6.332;2024-03-29T07:51:28;156299.88;;;7.27;100.00
75640;BME280;64233;51.486;6.332;2024-03-29T07:53:54;156316.56;;;7.34;100.00
75640;BME280;64233;51.486;6.332;2024-03-29T07:56:22;156330.66;;;7.39;100.00
75640;BME280;64233;51.486;6.332;2024-03-29T07:58:51;156315.28;;;7.33;100.00
75640;BME280;64233;51.486;6.332;2024-03-29T08:01:18;156334.50;;;7.41;100.00
75640;BME280;64233;51.486;6.332;2024-03-29T08:03:44;156343.50;;;7.45;100.00
75640;BME280;64233;51.486;6.332;2024-03-29T08:06:09;156355.03;;;7.49;100.00
75640;BME280;64233;51.486;6.332;2024-03-29T08:08:35;156396.09;;;7.66;100.00
75640;BME280;64233;51.486;6.332;2024-03-29T08:11:03;156447.38;;;7.86;100.00
75640;BME280;64233;51.486;6.332;2024-03-29T08:13:29;156444.84;;;7.85;100.00
75640;BME280;64233;51.486;6.332;2024-03-29T08:16:00;156470.50;;;7.96;100.00
75640;BME280;64233;51.486;6.332;2024-03-29T08:18:30;156484.59;;;8.01;100.00
75640;BME280;64233;51.486;6.332;2024-03-29T08:20:55;156510.25;;;8.12;100.00
75640;BME280;64233;51.486;6.332;2024-03-29T08:23:21;156557.69;;;8.31;100.00
75640;BME280;64233;51.486;6.332;2024-03-29T08:25:47;156587.25;;;8.42;100.00
75640;BME280;64233;51.486;6.332;2024-03-29T08:28:13;156623.22;;;8.57;100.00
75640;BME280;64233;51.486;6.332;2024-03-29T08:30:39;156634.75;;;8.61;100.00
75640;BME280;64233;51.486;6.332;2024-03-29T08:33:04;156643.75;;;8.65;100.00
75640;BME280;64233;51.486;6.332;2024-03-29T08:35:31;156634.75;;;8.61;100.00
75640;BME280;64233;51.486;6.332;2024-03-29T08:37:56;156655.31;;;8.70;100.00
75640;BME280;64233;51.486;6.332;2024-03-29T08:40:21;156670.69;;;8.76;100.00
75640;BME280;64233;51.486;6.332;2024-03-29T08:42:47;156673.25;;;8.77;100.00
75640;BME280;64233;51.486;6.332;2024-03-29T08:45:13;156696.38;;;8.86;100.00
75640;BME280;64233;51.486;6.332;2024-03-29T08:47:39;156666.84;;;8.74;100.00
75640;BME280;64233;51.486;6.332;2024-03-29T08:50:04;156663.00;;;8.73;100.00
75640;BME280;64233;51.486;6.332;2024-03-29T08:52:30;156668.16;;;8.75;100.00
75640;BME280;64233;51.486;6.332;2024-03-29T08:54:55;156675.84;;;8.78;100.00
75640;BME280;64233;51.486;6.332;2024-03-29T08:57:21;156674.56;;;8.77;100.00
75640;BME280;64233;51.486;6.332;2024-03-29T08:59:46;156679.69;;;8.79;100.00
75640;BME280;64233;51.486;6.332;2024-03-29T09:02:12;156698.91;;;8.87;100.00
75640;BME280;64233;51.486;6.332;2024-03-29T09:04:37;156714.34;;;8.93;100.00
75640;BME280;64233;51.486;6.332;2024-03-29T09:07:03;156707.94;;;8.91;100.00
75640;BME280;64233;51.486;6.332;2024-03-29T09:09:29;156716.94;;;8.94;100.00
75640;BME280;64233;51.486;6.332;2024-03-29T09:11:55;156723.31;;;8.97;100.00
75640;BME280;64233;51.486;6.332;2024-03-29T09:14:20;156724.63;;;8.98;100.00
75640;BME280;64233;51.486;6.332;2024-03-29T09:16:46;156760.56;;;9.12;100.00
75640;BME280;64233;51.486;6.332;2024-03-29T09:19:13;156775.97;;;9.18;100.00
75640;BME280;64233;51.486;6.332;2024-03-29T09:21:39;156796.50;;;9.26;100.00
75640;BME280;64233;51.486;6.332;2024-03-29T09:24:05;156796.50;;;9.26;100.00
75640;BME280;64233;51.486;6.332;2024-03-29T09:26:31;156802.94;;;9.29;100.00
75640;BME280;64233;51.486;6.332;2024-03-29T09:28:56;156800.34;;;9.28;100.00
75640;BME280;64233;51.486;6.332;2024-03-29T09:31:22;156802.94;;;9.29;100.00
75640;BME280;64233;51.486;6.332;2024-03-29T09:33:47;156823.47;;;9.37;100.00
75640;BME280;64233;51.486;6.332;2024-03-29T09:36:19;156836.28;;;9.42;100.00
75640;BME280;64233;51.486;6.332;2024-03-29T09:38:45;156853.00;;;9.49;100.00
75640;BME280;64233;51.486;6.332;2024-03-29T09:41:13;156894.09;;;9.65;100.00
75640;BME280;64233;51.486;6.332;2024-03-29T09:43:44;156937.75;;;9.83;100.00
75640;BME280;64233;51.486;6.332;2024-03-29T09:46:15;156971.13;;;9.96;100.00
75640;BME280;64233;51.486;6.332;2024-03-29T09:48:42;156972.44;;;9.97;100.00
75640;BME280;64233;51.486;6.332;2024-03-29T09:51:08;157003.28;;;10.09;100.00
75640;BME280;64233;51.486;6.332;2024-03-29T09:53:35;157010.97;;;10.12;100.00
75640;BME280;64233;51.486;6.332;2024-03-29T09:56:03;157075.25;;;10.38;100.00
75640;BME280;64233;51.486;6.332;2024-03-29T09:58:30;157081.69;;;10.41;100.00
75640;BME280;64233;51.486;6.332;2024-03-29T10:00:55;157063.66;;;10.33;100.00
75640;BME280;64233;51.486;6.332;2024-03-29T10:03:24;157080.38;;;10.40;100.00
75640;BME280;64233;51.486;6.332;2024-03-29T10:05:57;157084.22;;;10.42;100.00
75640;BME280;64233;51.486;6.332;2024-03-29T10:08:26;157079.09;;;10.40;100.00
75640;BME280;64233;51.486;6.332;2024-03-29T10:10:53;157088.13;;;10.43;100.00
75640;BME280;64233;51.486;6.332;2024-03-29T10:13:19;157076.53;;;10.39;100.00
75640;BME280;64233;51.486;6.332;2024-03-29T10:15:44;157075.25;;;10.38;100.00
75640;BME280;64233;51.486;6.332;2024-03-29T10:18:14;157098.34;;;10.47;100.00
75640;BME280;64233;51.486;6.332;2024-03-29T10:20:40;157094.50;;;10.46;100.00
75640;BME280;64233;51.486;6.332;2024-03-29T10:23:05;157094.50;;;10.46;100.00
75640;BME280;64233;51.486;6.332;2024-03-29T10:25:32;157106.09;;;10.50;100.00
75640;BME280;64233;51.486;6.332;2024-03-29T10:28:03;157130.47;;;10.60;100.00
75640;BME280;64233;51.486;6.332;2024-03-29T10:30:29;157176.78;;;10.79;100.00
75640;BME280;64233;51.486;6.332;2024-03-29T10:32:57;157162.63;;;10.73;100.00
75640;BME280;64233;51.486;6.332;2024-03-29T10:35:26;157152.34;;;10.69;100.00
75640;BME280;64233;51.486;6.332;2024-03-29T10:37:53;157175.47;;;10.78;100.00
75640;BME280;64233;51.486;6.332;2024-03-29T10:40:22;157179.31;;;10.80;100.00
75640;BME280;64233;51.486;6.332;2024-03-29T10:42:50;157162.63;;;10.73;100.00
75640;BME280;64233;51.486;6.332;2024-03-29T10:45:15;157179.31;;;10.80;100.00
75640;BME280;64233;51.486;6.332;2024-03-29T10:47:43;157166.50;;;10.75;100.00
75640;BME280;64233;51.486;6.332;2024-03-29T10:50:12;157189.59;;;10.84;100.00
75640;BME280;64233;51.486;6.332;2024-03-29T10:52:40;157211.44;;;10.93;100.00
75640;BME280;64233;51.486;6.332;2024-03-29T10:55:09;157253.84;;;11.10;100.00
75640;BME280;64233;51.486;6.332;2024-03-29T10:57:40;157233.31;;;11.01;100.00
75640;BME280;64233;51.486;6.332;2024-03-29T11:00:13;157239.72;;;11.04;100.00
75640;BME280;64233;51.486;6.332;2024-03-29T11:05:28;157235.88;;;11.02;100.00
75640;BME280;64233;51.486;6.332;2024-03-29T11:07:56;157269.31;;;11.16;100.00
75640;BME280;64233;51.486;6.332;2024-03-29T11:15:57;157311.72;;;11.33;100.00
75640;BME280;64233;51.486;6.332;2024-03-29T11:18:26;157316.84;;;11.35;100.00
75640;BME280;64233;51.486;6.332;2024-03-29T11:20:52;157320.69;;;11.36;100.00
75640;BME280;64233;51.486;6.332;2024-03-29T11:23:20;157354.16;;;11.50;100.00
75640;BME280;64233;51.486;6.332;2024-03-29T11:25:49;157360.59;;;11.52;100.00
75640;BME280;64233;51.486;6.332;2024-03-29T11:28:35;157342.53;;;11.45;100.00
75640;BME280;64233;51.486;6.332;2024-03-29T11:31:07;157363.13;;;11.53;100.00
75640;BME280;64233;51.486;6.332;2024-03-29T11:33:44;157444.13;;;11.86;100.00
75640;BME280;64233;51.486;6.332;2024-03-29T11:36:12;157471.19;;;11.97;100.00
75640;BME280;64233;51.486;6.332;2024-03-29T11:38:39;157495.63;;;12.07;100.00
75640;BME280;64233;51.486;6.332;2024-03-29T11:43:35;157439.00;;;11.84;100.00
75640;BME280;64233;51.486;6.332;2024-03-29T11:46:02;157466.03;;;11.95;100.00
75640;BME280;64233;51.486;6.332;2024-03-29T11:48:29;157471.19;;;11.97;100.00
75640;BME280;64233;51.486;6.332;2024-03-29T11:50:59;157439.00;;;11.84;100.00
75640;BME280;64233;51.486;6.332;2024-03-29T11:53:25;157426.13;;;11.79;100.00
75640;BME280;64233;51.486;6.332;2024-03-29T11:55:52;157413.25;;;11.74;100.00
75640;BME280;64233;51.486;6.332;2024-03-29T11:58:22;157440.28;;;11.84;100.00
75640;BME280;64233;51.486;6.332;2024-03-29T12:00:49;157464.75;;;11.94;100.00
75640;BME280;64233;51.486;6.332;2024-03-29T12:03:18;157467.34;;;11.95;100.00
75640;BME280;64233;51.486;6.332;2024-03-29T12:05:44;157439.00;;;11.84;100.00
75640;BME280;64233;51.486;6.332;2024-03-29T12:08:10;157451.84;;;11.89;100.00
75640;BME280;64233;51.486;6.332;2024-03-29T12:10:36;157436.41;;;11.83;100.00
75640;BME280;64233;51.486;6.332;2024-03-29T12:13:05;157444.13;;;11.86;100.00
75640;BME280;64233;51.486;6.332;2024-03-29T12:15:31;157442.84;;;11.85;100.00
75640;BME280;64233;51.486;6.332;2024-03-29T12:18:06;157446.72;;;11.87;100.00
75640;BME280;64233;51.486;6.332;2024-03-29T12:20:35;157450.56;;;11.88;100.00
75640;BME280;64233;51.486;6.332;2024-03-29T12:23:03;157449.28;;;11.88;100.00
75640;BME280;64233;51.486;6.332;2024-03-29T12:25:30;157462.13;;;11.93;100.00
75640;BME280;64233;51.486;6.332;2024-03-29T12:27:56;157547.06;;;12.27;100.00
75640;BME280;64233;51.486;6.332;2024-03-29T12:30:22;157568.91;;;12.36;100.00
75640;BME280;64233;51.486;6.332;2024-03-29T12:32:48;157540.63;;;12.25;100.00
75640;BME280;64233;51.486;6.332;2024-03-29T12:35:15;157583.06;;;12.42;100.00
75640;BME280;64233;51.486;6.332;2024-03-29T12:37:48;157637.13;;;12.63;100.00
75640;BME280;64233;51.486;6.332;2024-03-29T12:40:16;157674.41;;;12.78;100.00
75640;BME280;64233;51.486;6.332;2024-03-29T12:42:48;157702.69;;;12.89;100.00
75640;BME280;64233;51.486;6.332;2024-03-29T12:45:14;157719.44;;;12.96;100.00
75640;BME280;64233;51.486;6.332;2024-03-29T12:47:39;157764.50;;;13.14;100.00
75640;BME280;64233;51.486;6.332;2024-03-29T12:50:05;157723.31;;;12.98;100.00
75640;BME280;64233;51.486;6.332;2024-03-29T12:52:40;157778.66;;;13.20;100.00
75640;BME280;64233;51.486;6.332;2024-03-29T12:55:06;157752.88;;;13.09;100.00